createdAt,value
2023-05-06T00:04:26.864Z,96488.09
2023-05-06T00:09:31.062Z,96485.38
2023-05-06T00:14:33.881Z,96483.75
2023-05-06T00:19:36.720Z,96477.50
2023-05-06T00:24:41.004Z,96475.09
2023-05-06T00:29:43.885Z,96460.69
2023-05-06T00:34:47.028Z,96461.50
2023-05-06T00:39:51.170Z,96475.38
2023-05-06T00:44:53.981Z,96474.53
2023-05-06T00:49:57.329Z,96470.22
2023-05-06T00:55:01.525Z,96472.13
2023-05-06T01:00:07.178Z,96463.16
2023-05-06T01:05:12.244Z,96460.44
2023-05-06T01:10:22.504Z,96457.75
2023-05-06T01:15:30.356Z,96468.59
2023-05-06T01:20:34.329Z,96463.16
2023-05-06T01:25:41.676Z,96464.28
2023-05-06T01:30:50.836Z,96460.72
2023-05-06T01:35:56.838Z,96451.78
2023-05-06T01:41:02.515Z,96453.69
2023-05-06T01:46:06.447Z,96452.84
2023-05-06T01:51:09.457Z,96457.50
2023-05-06T01:56:14.128Z,96456.69
2023-05-06T02:01:17.889Z,96461.59
2023-05-06T02:06:20.720Z,96456.97
2023-05-06T02:11:24.894Z,96456.44
2023-05-06T02:16:29.558Z,96462.69
2023-05-06T02:21:33.064Z,96461.06
2023-05-06T02:26:37.294Z,96464.88
2023-05-06T02:31:40.205Z,96455.09
2023-05-06T02:36:43.092Z,96452.38
2023-05-06T02:41:47.334Z,96446.16
2023-05-06T02:46:50.171Z,96441.78
2023-05-06T02:51:53.002Z,96443.72
2023-05-06T02:57:00.061Z,96440.19
2023-05-06T03:02:03.076Z,96442.91
2023-05-06T03:07:05.913Z,96425.00
2023-05-06T03:12:10.050Z,96424.19
2023-05-06T03:17:12.927Z,96422.56
2023-05-06T03:22:15.710Z,96426.91
2023-05-06T03:27:20.510Z,96433.13
2023-05-06T03:32:23.335Z,96426.38
2023-05-06T03:37:26.422Z,96439.16
2023-05-06T03:42:31.071Z,96437.22
2023-05-06T03:47:34.024Z,96432.06
2023-05-06T03:52:36.941Z,96437.50
2023-05-06T03:57:41.164Z,96442.16
2023-05-06T04:02:44.111Z,96426.94
2023-05-06T04:07:46.922Z,96426.94
2023-05-06T04:12:51.175Z,96435.09
2023-05-06T04:17:54.046Z,96439.69
2023-05-06T04:22:56.824Z,96437.00
2023-05-06T04:28:01.014Z,96433.44
2023-05-06T04:33:04.043Z,96437.00
2023-05-06T04:38:07.180Z,96447.03
2023-05-06T04:43:12.069Z,96450.56
2023-05-06T04:48:16.217Z,96454.38
2023-05-06T04:53:19.058Z,96455.19
2023-05-06T04:58:23.240Z,96456.81
2023-05-06T05:03:26.216Z,96464.97
2023-05-06T05:08:29.157Z,96469.28
2023-05-06T05:13:33.398Z,96481.78
2023-05-06T05:18:36.247Z,96474.44
2023-05-06T05:23:39.085Z,96486.94
2023-05-06T05:28:44.394Z,96487.72
2023-05-06T05:33:47.291Z,96486.66
2023-05-06T05:38:50.249Z,96489.38
2023-05-06T05:43:54.450Z,96483.94
2023-05-06T05:48:57.283Z,96480.91
2023-05-06T05:54:00.162Z,96494.50
2023-05-06T05:59:04.536Z,96486.34
2023-05-06T06:04:07.498Z,96486.91
2023-05-06T06:09:11.105Z,96481.47
2023-05-06T06:14:15.350Z,96481.47
2023-05-06T06:19:18.159Z,96484.97
2023-05-06T06:24:21.075Z,96475.72
2023-05-06T06:29:25.376Z,96470.28
2023-05-06T06:34:28.245Z,96474.94
2023-05-06T06:39:31.018Z,96471.13
2023-05-06T06:44:35.707Z,96476.28
2023-05-06T06:49:41.187Z,96478.72
2023-05-06T06:54:44.117Z,96477.59
2023-05-06T06:59:50.389Z,96481.13
2023-05-06T07:04:53.197Z,96478.94
2023-05-06T07:09:56.079Z,96477.31
2023-05-06T07:15:01.548Z,96475.13
2023-05-06T07:20:04.863Z,96479.75
2023-05-06T07:25:08.808Z,96474.03
2023-05-06T07:30:13.847Z,96481.91
2023-05-06T07:35:16.678Z,96477.25
2023-05-06T07:40:19.469Z,96480.81
2023-05-06T07:45:25.122Z,96480.53
2023-05-06T07:50:27.922Z,96482.94
2023-05-06T07:55:32.014Z,96483.75
2023-05-06T08:00:36.928Z,96478.06
2023-05-06T08:05:39.726Z,96479.94
2023-05-06T08:10:42.549Z,96468.78
2023-05-06T08:15:46.894Z,96477.78
2023-05-06T08:20:49.766Z,96473.13
2023-05-06T08:25:52.583Z,96475.56
2023-05-06T08:30:56.765Z,96467.94
2023-05-06T08:35:59.752Z,96471.19
2023-05-06T08:41:10.652Z,96464.13
2023-05-06T08:46:15.236Z,96462.72
2023-05-06T08:51:18.916Z,96466.28
2023-05-06T08:56:23.102Z,96473.31
2023-05-06T09:01:28.460Z,96465.44
2023-05-06T09:06:31.503Z,96453.50
2023-05-06T09:11:34.358Z,96455.13
2023-05-06T09:16:39.195Z,96443.97
2023-05-06T09:21:43.935Z,96439.56
2023-05-06T09:26:48.233Z,96441.72
2023-05-06T09:31:56.442Z,96435.47
2023-05-06T09:36:59.306Z,96432.47
2023-05-06T09:42:02.252Z,96425.94
2023-05-06T09:47:07.055Z,96421.84
2023-05-06T09:52:10.083Z,96420.47
2023-05-06T09:57:14.003Z,96412.59
2023-05-06T10:02:18.581Z,96407.69
2023-05-06T10:07:23.614Z,96409.03
2023-05-06T10:12:26.561Z,96397.34
2023-05-06T10:17:32.749Z,96402.22
2023-05-06T10:22:44.973Z,96395.38
2023-05-06T10:27:49.724Z,96388.06
2023-05-06T10:32:57.884Z,96378.22
2023-05-06T10:38:01.773Z,96363.81
2023-05-06T10:43:27.388Z,96360.81
2023-05-06T10:48:32.312Z,96363.53
2023-05-06T10:53:59.817Z,96354.28
2023-05-06T10:59:06.928Z,96343.91
2023-05-06T11:04:12.695Z,96347.16
2023-05-06T11:09:19.903Z,96343.84
2023-05-06T11:14:27.287Z,96342.25
2023-05-06T11:19:32.122Z,96325.94
2023-05-06T11:24:40.184Z,96324.53
2023-05-06T11:29:44.296Z,96320.44
2023-05-06T11:34:48.432Z,96314.72
2023-05-06T11:39:51.257Z,96316.84
2023-05-06T11:44:55.916Z,96312.50
2023-05-06T11:50:06.385Z,96305.94
2023-05-06T11:55:10.936Z,96307.28
2023-05-06T12:00:14.889Z,96301.56
2023-05-06T12:05:23.608Z,96296.13
2023-05-06T12:10:26.493Z,96291.19
2023-05-06T12:15:29.759Z,96292.50
2023-05-06T12:20:33.911Z,96282.47
2023-05-06T12:25:36.747Z,96280.53
2023-05-06T12:30:39.598Z,96269.91
2023-05-06T12:35:43.751Z,96274.53
2023-05-06T12:40:54.049Z,96266.88
2023-05-06T12:46:07.147Z,96256.19
2023-05-06T12:51:21.347Z,96251.59
2023-05-06T12:56:24.360Z,96256.13
2023-05-06T13:01:27.428Z,96247.59
2023-05-06T13:06:33.017Z,96252.53
2023-05-06T13:11:35.870Z,96247.09
2023-05-06T13:16:39.931Z,96238.13
2023-05-06T13:21:44.258Z,96230.53
2023-05-06T13:26:47.087Z,96223.00
2023-05-06T13:31:49.884Z,96230.94
2023-05-06T13:36:54.638Z,96220.28
2023-05-06T13:41:57.490Z,96232.41
2023-05-06T13:47:00.448Z,96234.50
2023-05-06T13:52:05.774Z,96234.84
2023-05-06T13:57:10.803Z,96226.34
2023-05-06T14:02:13.790Z,96230.81
2023-05-06T14:07:18.249Z,96222.47
2023-05-06T14:12:22.853Z,96214.13
2023-05-06T14:17:25.870Z,96205.75
2023-05-06T14:22:30.155Z,96209.41
2023-05-06T14:27:32.968Z,96199.94
2023-05-06T14:32:35.850Z,96190.00
2023-05-06T14:37:40.088Z,96191.63
2023-05-06T14:42:42.909Z,96186.25
2023-05-06T14:47:45.992Z,96172.91
2023-05-06T14:52:50.533Z,96168.22
2023-05-06T14:57:53.800Z,96167.41
2023-05-06T15:02:56.677Z,96165.94
2023-05-06T15:08:00.891Z,96166.41
2023-05-06T15:13:03.783Z,96173.09
2023-05-06T15:18:06.779Z,96172.16
2023-05-06T15:23:10.998Z,96173.50
2023-05-06T15:28:13.837Z,96169.00
2023-05-06T15:33:16.675Z,96168.63
2023-05-06T15:38:20.943Z,96165.47
2023-05-06T15:43:24.637Z,96167.25
2023-05-06T15:48:29.308Z,96159.84
2023-05-06T15:53:33.497Z,96157.59
2023-05-06T15:58:36.728Z,96158.72
2023-05-06T16:03:41.138Z,96165.84
2023-05-06T16:08:45.509Z,96159.78
2023-05-06T16:13:48.489Z,96164.16
2023-05-06T16:18:51.560Z,96164.53
2023-05-06T16:23:55.741Z,96157.84
2023-05-06T16:28:59.506Z,96166.34
2023-05-06T16:34:02.375Z,96167.53
2023-05-06T16:39:08.135Z,96167.75
2023-05-06T16:44:10.918Z,96169.97
2023-05-06T16:49:13.757Z,96167.81
2023-05-06T16:54:17.953Z,96171.25
2023-05-06T16:59:22.397Z,96160.91
2023-05-06T17:04:25.927Z,96165.84
2023-05-06T17:09:30.156Z,96168.06
2023-05-06T17:14:32.983Z,96162.88
2023-05-06T17:19:35.834Z,96168.94
2023-05-06T17:24:39.986Z,96172.03
2023-05-06T17:29:42.845Z,96168.22
2023-05-06T17:34:46.938Z,96167.13
2023-05-06T17:39:52.321Z,96159.38
2023-05-06T17:44:55.216Z,96158.06
2023-05-06T17:49:58.028Z,96168.59
2023-05-06T17:55:11.797Z,96167.28
2023-05-06T18:00:19.332Z,96164.13
2023-05-06T18:05:24.566Z,96170.31
2023-05-06T18:10:29.440Z,96174.16
2023-05-06T18:15:32.966Z,96177.59
2023-05-06T18:20:35.816Z,96176.84
2023-05-06T18:25:39.966Z,96178.25
2023-05-06T18:30:42.745Z,96190.06
2023-05-06T18:35:45.668Z,96187.13
2023-05-06T18:40:50.247Z,96189.13
2023-05-06T18:45:53.228Z,96187.03
2023-05-06T18:50:56.101Z,96187.63
2023-05-06T18:56:00.305Z,96200.53
2023-05-06T19:01:03.184Z,96205.97
2023-05-06T19:06:09.167Z,96213.13
2023-05-06T19:11:18.090Z,96221.56
2023-05-06T19:16:21.722Z,96220.25
2023-05-06T19:21:24.601Z,96225.19
2023-05-06T19:26:28.867Z,96233.44
2023-05-06T19:31:31.767Z,96246.56
2023-05-06T19:36:34.660Z,96233.25
2023-05-06T19:41:38.840Z,96231.44
2023-05-06T19:46:41.788Z,96230.09
2023-05-06T19:51:44.825Z,96230.41
2023-05-06T19:56:49.185Z,96225.25
2023-05-06T20:01:53.217Z,96234.50
2023-05-06T20:06:57.929Z,96236.41
2023-05-06T20:12:03.342Z,96242.97
2023-05-06T20:17:06.242Z,96240.56
2023-05-06T20:22:09.312Z,96245.47
2023-05-06T20:27:13.544Z,96249.03
2023-05-06T20:32:16.340Z,96254.72
2023-05-06T20:37:20.006Z,96253.09
2023-05-06T20:42:24.209Z,96253.69
2023-05-06T20:47:27.131Z,96246.63
2023-05-06T20:52:30.027Z,96250.47
2023-05-06T20:57:34.213Z,96256.72
2023-05-06T21:02:41.401Z,96255.09
2023-05-06T21:07:44.867Z,96260.84
2023-05-06T21:12:49.541Z,96261.13
2023-05-06T21:17:52.448Z,96252.97
2023-05-06T21:22:56.375Z,96250.81
2023-05-06T21:28:04.925Z,96262.81
2023-05-06T21:33:10.906Z,96263.94
2023-05-06T21:38:13.859Z,96265.31
2023-05-06T21:43:18.262Z,96265.63
2023-05-06T21:48:21.369Z,96277.59
2023-05-06T21:53:24.220Z,96272.16
2023-05-06T21:58:28.404Z,96268.13
2023-05-06T22:03:31.386Z,96266.50
2023-05-06T22:08:34.262Z,96273.06
2023-05-06T22:13:38.390Z,96271.72
2023-05-06T22:18:42.644Z,96273.63
2023-05-06T22:23:45.443Z,96281.00
2023-05-06T22:28:49.856Z,96290.22
2023-05-06T22:33:55.444Z,96274.22
2023-05-06T22:38:58.502Z,96274.53
2023-05-06T22:44:02.841Z,96273.69
2023-05-06T22:49:05.706Z,96281.06
2023-05-06T22:54:08.592Z,96269.38
2023-05-06T22:59:13.299Z,96267.25
2023-05-06T23:04:16.299Z,96266.44
2023-05-06T23:09:19.256Z,96276.50
2023-05-06T23:14:23.742Z,96278.69
2023-05-06T23:19:26.892Z,96279.53
2023-05-06T23:24:29.725Z,96279.81
2023-05-06T23:29:33.869Z,96286.34
2023-05-06T23:34:36.674Z,96283.63
2023-05-06T23:39:40.323Z,96282.03
2023-05-06T23:44:44.547Z,96285.81
2023-05-06T23:49:47.340Z,96285.31
2023-05-06T23:54:50.188Z,96294.28
2023-05-06T23:59:54.393Z,96285.31
